Time;durP1;ratioP1;P1;durP2;ratioP2;P2;SDS_P1;SDS_P2;PMS_P1;PMS_P2;Temp;Humidity;BMP_temperature;BMP_pressure;BME280_temperature;BME280_humidity;BME280_pressure;Samples;Min_cycle;Max_cycle;Signal;HPM_P1;HPM_P2
2022/09/09 00:04:35;;;;;;;0.10;0.10;;;;;;;18.62;64.45;100788.63;5055370;28;20413;-75
2022/09/09 00:09:48;;;;;;;0.10;0.10;;;;;;;18.52;64.55;100782.94;5067751;28;20756;-75
2022/09/09 00:12:43;;;;;;;0.10;0.10;;;;;;;18.51;64.21;100783.88;5066135;28;20025;-75
2022/09/09 00:15:19;;;;;;;0.15;0.15;;;;;;;18.46;64.76;100783.25;5047514;28;20037;-75
2022/09/09 00:23:30;;;;;;;0.10;0.10;;;;;;;18.37;64.93;100782.78;5065419;28;20412;-76
2022/09/09 00:31:44;;;;;;;0.10;0.10;;;;;;;18.26;64.97;100779.81;5146273;27;20392;-75
2022/09/09 00:34:15;;;;;;;0.17;0.17;;;;;;;18.26;65.21;100774.47;5121823;27;20031;-76
2022/09/09 00:36:43;;;;;;;0.10;0.10;;;;;;;18.23;64.87;100775.50;5119631;28;20062;-75
2022/09/09 00:42:41;;;;;;;0.10;0.10;;;;;;;18.24;64.91;100765.63;5106540;27;20348;-76
2022/09/09 00:47:53;;;;;;;0.10;0.10;;;;;;;18.19;65.38;100754.28;5089517;27;1198636;-74
2022/09/09 00:50:55;;;;;;;0.00;0.00;;;;;;;18.17;65.52;100749.00;5102472;28;20118;-75
2022/09/09 00:56:25;;;;;;;0.13;0.13;;;;;;;18.18;64.81;100757.91;5075539;28;20406;-76
2022/09/09 00:59:12;;;;;;;0.10;0.10;;;;;;;18.14;65.17;100750.97;5066049;28;20045;-75
2022/09/09 01:01:39;;;;;;;0.25;0.25;;;;;;;18.06;65.47;100752.25;5066062;28;20032;-75
2022/09/09 01:04:16;;;;;;;0.10;0.10;;;;;;;18.07;65.09;100762.03;5063130;28;20032;-76
2022/09/09 01:06:46;;;;;;;0.10;0.10;;;;;;;18.03;65.59;100757.78;5065742;28;20016;-76
2022/09/09 01:09:38;;;;;;;0.10;0.10;;;;;;;18.13;64.98;100757.28;5060139;28;20026;-75
2022/09/09 01:14:48;;;;;;;0.10;0.10;;;;;;;18.06;65.14;100764.81;5088661;27;20373;-75
2022/09/09 01:23:16;;;;;;;0.10;0.10;;;;;;;18.06;65.28;100749.56;5082501;28;20402;-74
2022/09/09 01:26:14;;;;;;;0.10;0.10;;;;;;;18.06;64.98;100741.53;5070458;28;20435;-74
2022/09/09 01:28:43;;;;;;;0.10;0.10;;;;;;;17.96;65.77;100745.66;5062688;28;20025;-76
2022/09/09 01:31:15;;;;;;;0.10;0.10;;;;;;;17.99;65.66;100734.75;5068779;28;20028;-76
2022/09/09 01:33:41;;;;;;;0.10;0.10;;;;;;;18.01;65.32;100732.88;5070418;28;20024;-75
2022/09/09 01:36:16;;;;;;;0.08;0.08;;;;;;;18.04;65.49;100731.84;5071230;28;20025;-76
2022/09/09 01:38:42;;;;;;;0.10;0.10;;;;;;;18.04;65.54;100727.31;5061194;28;20098;-76
2022/09/09 01:41:08;;;;;;;0.10;0.10;;;;;;;18.05;65.90;100729.06;5070362;28;20052;-76
2022/09/09 01:43:34;;;;;;;0.10;0.10;;;;;;;18.10;65.80;100723.47;5073316;28;20105;-75
2022/09/09 01:46:02;;;;;;;0.10;0.10;;;;;;;18.14;65.76;100721.50;5070946;28;20043;-74
2022/09/09 01:48:29;;;;;;;0.10;0.10;;;;;;;18.19;65.72;100730.16;5067521;28;20115;-75
2022/09/09 01:50:55;;;;;;;0.10;0.10;;;;;;;18.21;65.92;100720.22;5061646;28;20024;-75
2022/09/09 01:53:22;;;;;;;0.08;0.08;;;;;;;18.26;65.40;100726.19;5067911;28;20029;-74
2022/09/09 01:56:09;;;;;;;0.10;0.10;;;;;;;18.32;65.49;100723.19;5071384;28;20029;-74
2022/09/09 02:03:55;;;;;;;0.30;0.30;;;;;;;18.32;65.01;100731.22;5090675;27;20368;-76
2022/09/09 02:06:31;;;;;;;0.10;0.10;;;;;;;18.35;65.17;100719.47;5070866;28;20029;-76
2022/09/09 02:08:59;;;;;;;0.10;0.10;;;;;;;18.30;65.12;100722.38;5065302;28;20033;-75
2022/09/09 02:11:28;;;;;;;0.10;0.10;;;;;;;18.36;65.17;100722.03;5075779;28;20051;-75
2022/09/09 02:14:02;;;;;;;0.10;0.10;;;;;;;18.38;64.86;100720.16;5070191;28;20048;-76
2022/09/09 02:16:51;;;;;;;0.00;0.00;;;;;;;18.37;65.18;100717.56;5055905;28;20039;-76
2022/09/09 02:19:26;;;;;;;0.10;0.10;;;;;;;18.39;65.14;100716.53;5071184;28;20029;-76
2022/09/09 02:21:55;;;;;;;0.10;0.10;;;;;;;18.38;65.38;100712.13;5074834;28;20414;-76
2022/09/09 02:24:22;;;;;;;0.10;0.10;;;;;;;18.38;65.04;100703.19;5085825;28;20021;-75
2022/09/09 02:26:55;;;;;;;0.00;0.00;;;;;;;18.40;65.13;100710.19;5062404;28;20055;-76
2022/09/09 02:29:26;;;;;;;0.10;0.10;;;;;;;18.39;64.82;100711.16;5070563;28;20032;-76
2022/09/09 02:31:55;;;;;;;0.10;0.10;;;;;;;18.37;64.94;100704.16;5067779;28;20052;-75
2022/09/09 02:34:24;;;;;;;0.52;0.52;;;;;;;18.38;64.88;100697.81;5056780;28;20111;-76
2022/09/09 02:36:52;;;;;;;0.10;0.10;;;;;;;18.34;64.72;100707.00;5074782;28;20035;-75
2022/09/09 02:39:18;;;;;;;0.00;0.00;;;;;;;18.29;64.70;100696.50;5080602;28;20036;-75
2022/09/09 02:41:44;;;;;;;0.10;0.10;;;;;;;18.24;64.81;100695.91;5068214;28;20033;-75
2022/09/09 02:44:16;;;;;;;0.20;0.20;;;;;;;18.22;64.99;100692.44;5080330;28;20063;-75
2022/09/09 02:52:11;;;;;;;0.10;0.10;;;;;;;18.10;64.97;100681.41;5071180;28;20434;-75
2022/09/09 02:54:39;;;;;;;0.10;0.10;;;;;;;18.10;64.98;100677.88;5029433;28;20379;-75
2022/09/09 02:57:14;;;;;;;1.00;0.88;;;;;;;18.13;64.70;100679.53;5029394;28;20384;-75
2022/09/09 02:59:41;;;;;;;0.10;0.10;;;;;;;18.07;64.92;100686.97;5044960;28;20029;-78
2022/09/09 03:02:07;;;;;;;0.10;0.10;;;;;;;18.06;64.82;100682.53;5035431;28;20504;-78
2022/09/09 03:04:33;;;;;;;0.10;0.10;;;;;;;18.02;65.41;100682.78;5038962;28;20038;-77
2022/09/09 03:06:59;;;;;;;0.20;0.20;;;;;;;17.99;64.95;100689.19;5039523;28;20555;-77
2022/09/09 03:09:26;;;;;;;0.30;0.30;;;;;;;17.98;65.20;100695.50;5034679;28;20112;-78
2022/09/09 03:11:54;;;;;;;0.10;0.10;;;;;;;17.92;65.03;100693.97;5034225;28;20064;-78
2022/09/09 03:14:24;;;;;;;0.80;0.47;;;;;;;17.88;65.02;100688.84;5037171;28;20101;-78
2022/09/09 03:16:50;;;;;;;0.10;0.10;;;;;;;17.85;65.28;100683.66;5038714;28;20032;-78
2022/09/09 03:19:18;;;;;;;0.10;0.10;;;;;;;17.80;65.25;100686.59;5046380;28;20179;-78
2022/09/09 03:21:45;;;;;;;0.10;0.10;;;;;;;17.76;65.13;100685.03;5045846;28;20037;-78
2022/09/09 03:24:12;;;;;;;0.10;0.10;;;;;;;17.73;65.21;100690.53;5035266;28;20021;-77
2022/09/09 03:26:40;;;;;;;0.13;0.13;;;;;;;17.68;65.42;100688.09;5023855;28;20116;-77
2022/09/09 03:29:07;;;;;;;0.10;0.10;;;;;;;17.65;65.32;100688.25;5031195;28;20029;-78
2022/09/09 03:31:34;;;;;;;0.20;0.20;;;;;;;17.63;65.58;100690.16;5031922;28;20469;-77
2022/09/09 03:34:00;;;;;;;0.13;0.13;;;;;;;17.62;65.55;100688.44;5033807;28;20096;-77
2022/09/09 03:36:28;;;;;;;0.30;0.30;;;;;;;17.61;65.30;100692.91;5031330;28;20495;-77
2022/09/09 03:38:54;;;;;;;0.10;0.10;;;;;;;17.59;65.32;100693.94;5029819;28;20440;-77
2022/09/09 03:41:23;;;;;;;0.10;0.10;;;;;;;17.56;65.44;100686.94;5032035;28;20029;-77
2022/09/09 03:43:50;;;;;;;1.08;1.05;;;;;;;17.55;65.46;100687.00;5025905;28;20876;-78
2022/09/09 03:46:18;;;;;;;0.05;0.05;;;;;;;17.51;65.80;100686.31;5034682;28;20032;-78
2022/09/09 03:48:45;;;;;;;0.05;0.05;;;;;;;17.51;65.72;100685.41;5033285;28;20061;-78
2022/09/09 03:51:12;;;;;;;0.10;0.10;;;;;;;17.44;66.02;100680.38;5035930;28;20052;-76
2022/09/09 03:53:39;;;;;;;0.10;0.10;;;;;;;17.43;66.16;100677.78;5035437;28;20223;-77
2022/09/09 03:56:06;;;;;;;0.10;0.10;;;;;;;17.42;66.15;100676.94;5034516;28;20562;-78
2022/09/09 03:58:34;;;;;;;0.10;0.10;;;;;;;17.41;65.65;100685.91;5034902;28;20029;-77
2022/09/09 04:01:02;;;;;;;0.15;0.15;;;;;;;17.40;66.06;100689.53;5042877;28;20062;-77
2022/09/09 04:03:29;;;;;;;0.10;0.10;;;;;;;17.36;66.27;100684.41;5012851;28;20049;-77
2022/09/09 04:05:58;;;;;;;0.10;0.10;;;;;;;17.32;66.49;100675.69;5019126;28;20068;-77
2022/09/09 04:08:25;;;;;;;0.10;0.10;;;;;;;17.29;66.00;100671.31;5017769;28;20124;-77
2022/09/09 04:10:52;;;;;;;0.10;0.10;;;;;;;17.27;66.03;100666.97;5016436;28;20024;-77
2022/09/09 04:13:19;;;;;;;0.10;0.10;;;;;;;17.24;66.40;100672.50;5014674;28;20112;-76
2022/09/09 04:15:53;;;;;;;0.10;0.10;;;;;;;17.27;66.65;100661.63;5020924;28;20030;-76
2022/09/09 04:18:20;;;;;;;3.45;1.40;;;;;;;17.24;66.21;100667.16;5018062;28;20034;-76
2022/09/09 04:20:48;;;;;;;0.20;0.20;;;;;;;17.26;66.25;100659.94;5014457;28;20109;-76
2022/09/09 04:23:15;;;;;;;0.10;0.10;;;;;;;17.23;66.20;100660.91;5017482;28;20025;-76
2022/09/09 04:25:47;;;;;;;0.08;0.08;;;;;;;17.22;66.54;100653.84;5020593;28;20029;-77
2022/09/09 04:28:15;;;;;;;0.15;0.15;;;;;;;17.19;66.53;100647.78;5024515;28;20034;-77
2022/09/09 04:30:45;;;;;;;0.10;0.10;;;;;;;17.19;66.66;100650.47;5021060;28;20025;-77
2022/09/09 04:33:14;;;;;;;0.10;0.10;;;;;;;17.20;66.43;100654.88;5017148;28;20129;-77
2022/09/09 04:35:49;;;;;;;0.10;0.10;;;;;;;17.19;67.11;100659.34;5024939;28;20133;-76
2022/09/09 04:38:16;;;;;;;0.10;0.10;;;;;;;17.14;67.02;100656.91;5019994;28;20025;-76
2022/09/09 04:40:46;;;;;;;1.10;1.10;;;;;;;17.16;66.46;100654.16;5028070;28;20026;-77
2022/09/09 04:43:14;;;;;;;0.10;0.10;;;;;;;17.13;66.88;100654.31;5017950;28;20036;-77
2022/09/09 04:45:42;;;;;;;0.10;0.10;;;;;;;17.14;66.95;100654.22;5026455;28;20029;-78
2022/09/09 04:48:09;;;;;;;0.10;0.10;;;;;;;17.13;67.15;100649.84;5022394;28;20026;-78
2022/09/09 04:50:36;;;;;;;0.10;0.10;;;;;;;17.18;66.86;100646.06;5017170;28;20041;-77
2022/09/09 04:53:04;;;;;;;0.10;0.10;;;;;;;17.18;66.99;100641.53;5027089;28;20422;-78
2022/09/09 04:55:31;;;;;;;0.10;0.10;;;;;;;17.20;67.08;100644.16;5027578;28;20034;-76
2022/09/09 04:57:57;;;;;;;0.10;0.10;;;;;;;17.21;66.88;100643.19;5012941;28;20049;-76
2022/09/09 05:00:24;;;;;;;0.10;0.10;;;;;;;17.23;66.93;100649.34;5006546;28;20053;-75
2022/09/09 05:02:51;;;;;;;0.20;0.20;;;;;;;17.20;67.30;100638.81;5011996;28;20132;-75
2022/09/09 05:05:18;;;;;;;0.10;0.10;;;;;;;17.21;67.18;100636.06;5013797;28;20027;-75
2022/09/09 05:07:44;;;;;;;0.10;0.10;;;;;;;17.20;67.29;100644.16;5015782;28;20030;-77
2022/09/09 05:10:10;;;;;;;0.00;0.00;;;;;;;17.20;67.09;100636.13;5009430;28;20057;-76
2022/09/09 05:12:41;;;;;;;0.05;0.05;;;;;;;17.25;67.20;100636.75;5006787;28;20038;-76
2022/09/09 05:15:08;;;;;;;0.10;0.10;;;;;;;17.27;66.86;100640.22;4997993;28;20033;-76
2022/09/09 05:17:34;;;;;;;0.10;0.10;;;;;;;17.26;67.17;100633.16;5012030;28;20030;-76
2022/09/09 05:20:00;;;;;;;8.68;1.10;;;;;;;17.29;66.88;100638.31;5005016;28;20046;-76
2022/09/09 05:22:26;;;;;;;0.52;0.52;;;;;;;17.30;66.86;100637.38;4996701;28;20037;-75
2022/09/09 05:24:52;;;;;;;0.10;0.10;;;;;;;17.33;67.22;100629.19;5004081;28;20045;-76
2022/09/09 05:27:20;;;;;;;0.10;0.10;;;;;;;17.35;66.99;100638.00;5002960;28;20467;-76
2022/09/09 05:29:47;;;;;;;0.03;0.03;;;;;;;17.36;67.31;100637.06;5001379;28;20041;-74
2022/09/09 05:32:15;;;;;;;0.10;0.10;;;;;;;17.37;67.07;100641.50;5005156;28;20448;-76
2022/09/09 05:34:41;;;;;;;0.10;0.10;;;;;;;17.41;66.90;100637.69;5005019;28;20110;-76
2022/09/09 05:37:07;;;;;;;0.10;0.10;;;;;;;17.42;67.30;100634.09;5011274;28;20439;-76
2022/09/09 05:39:36;;;;;;;0.40;0.40;;;;;;;17.48;66.98;100632.88;5006318;28;20119;-75
2022/09/09 05:42:04;;;;;;;0.10;0.10;;;;;;;17.49;67.14;100633.75;5012126;28;20439;-76
2022/09/09 05:44:30;;;;;;;0.10;0.10;;;;;;;17.54;66.69;100637.06;5008284;28;20438;-75
2022/09/09 05:46:57;;;;;;;0.10;0.10;;;;;;;17.54;67.13;100631.69;5009631;28;20117;-75
2022/09/09 05:49:24;;;;;;;0.10;0.10;;;;;;;17.56;67.23;100635.19;5009328;28;20045;-77
2022/09/09 05:51:50;;;;;;;0.10;0.10;;;;;;;17.59;67.63;100633.16;5012785;28;20030;-76
2022/09/09 05:54:17;;;;;;;0.47;0.47;;;;;;;17.63;67.53;100637.44;5006654;28;20096;-76
2022/09/09 05:56:43;;;;;;;0.10;0.10;;;;;;;17.74;67.69;100634.16;5013391;28;20057;-77
2022/09/09 05:59:09;;;;;;;0.10;0.10;;;;;;;17.81;67.96;100639.19;5010201;28;20372;-76
2022/09/09 06:01:40;;;;;;;0.35;0.30;;;;;;;17.92;67.95;100643.06;5012016;28;20029;-76
2022/09/09 06:04:06;;;;;;;0.10;0.10;;;;;;;18.06;67.74;100642.31;5013014;28;20034;-77
2022/09/09 06:06:39;;;;;;;0.20;0.20;;;;;;;18.17;67.51;100643.53;5005060;28;20097;-76
2022/09/09 06:09:09;;;;;;;0.10;0.10;;;;;;;18.26;67.41;100643.06;5015997;28;20042;-78
2022/09/09 06:11:37;;;;;;;0.10;0.10;;;;;;;18.35;67.33;100639.84;5012094;28;20030;-77
2022/09/09 06:14:04;;;;;;;0.50;0.50;;;;;;;18.45;67.38;100648.25;5011932;28;20057;-78
2022/09/09 06:16:32;;;;;;;0.25;0.25;;;;;;;18.51;67.05;100628.28;5015441;28;20030;-77
2022/09/09 06:18:59;;;;;;;0.10;0.10;;;;;;;18.62;66.72;100633.00;5018771;28;20034;-77
2022/09/09 06:24:04;;;;;;;0.10;0.10;;;;;;;18.71;66.23;100633.34;5052291;28;20416;-75
2022/09/09 06:26:33;;;;;;;0.10;0.10;;;;;;;18.77;66.08;100640.19;5046729;28;20051;-75
2022/09/09 06:29:00;;;;;;;0.15;0.15;;;;;;;18.76;65.85;100639.31;5058770;28;20061;-77
2022/09/09 06:31:30;;;;;;;0.10;0.10;;;;;;;18.83;65.49;100638.94;5061484;28;20052;-77
2022/09/09 06:33:58;;;;;;;0.10;0.10;;;;;;;18.81;65.45;100635.50;5069668;28;20029;-77
2022/09/09 06:36:40;;;;;;;0.20;0.20;;;;;;;18.81;65.24;100639.06;5062522;28;20022;-77
2022/09/09 06:39:07;;;;;;;0.10;0.10;;;;;;;18.86;65.39;100633.41;5066111;28;20057;-76
2022/09/09 06:41:33;;;;;;;0.10;0.10;;;;;;;18.86;65.59;100638.78;5062074;28;20028;-78
2022/09/09 06:44:00;;;;;;;0.10;0.10;;;;;;;18.94;65.23;100633.88;5064642;28;20021;-77
2022/09/09 06:46:30;;;;;;;0.10;0.10;;;;;;;19.02;65.23;100639.66;5068501;28;20106;-77
2022/09/09 06:48:58;;;;;;;0.10;0.10;;;;;;;19.11;65.12;100637.38;5063768;28;20029;-78
2022/09/09 06:51:26;;;;;;;0.10;0.10;;;;;;;19.15;64.94;100638.94;5057896;28;20483;-77
2022/09/09 06:53:55;;;;;;;0.10;0.10;;;;;;;19.30;64.81;100637.16;5059969;28;20039;-77
2022/09/09 06:56:25;;;;;;;0.10;0.10;;;;;;;19.28;64.56;100636.38;5063324;28;20392;-77
2022/09/09 06:58:52;;;;;;;0.10;0.10;;;;;;;19.30;64.46;100637.16;5053215;28;20120;-77
2022/09/09 07:01:21;;;;;;;0.22;0.22;;;;;;;19.35;64.29;100643.97;5053308;28;20025;-78
2022/09/09 07:03:50;;;;;;;0.10;0.10;;;;;;;19.40;64.22;100638.31;5054806;28;20017;-77
2022/09/09 07:06:19;;;;;;;0.10;0.10;;;;;;;19.43;63.95;100635.47;5061973;28;20036;-76
2022/09/09 07:08:50;;;;;;;0.20;0.20;;;;;;;19.54;63.95;100640.19;5058940;28;20078;-83
2022/09/09 07:11:17;;;;;;;0.95;0.70;;;;;;;19.58;63.56;100640.84;5059843;28;20025;-78
2022/09/09 07:13:43;;;;;;;0.10;0.10;;;;;;;19.62;63.58;100637.88;5057890;28;20522;-77
2022/09/09 07:16:12;;;;;;;0.10;0.10;;;;;;;19.69;63.33;100633.00;5053683;28;20076;-78
2022/09/09 07:18:40;;;;;;;0.10;0.10;;;;;;;19.64;63.07;100640.47;5060700;28;20047;-76
2022/09/09 07:21:08;;;;;;;0.10;0.10;;;;;;;19.69;63.01;100636.53;5056913;28;20093;-78
2022/09/09 07:23:35;;;;;;;0.10;0.10;;;;;;;19.72;62.95;100636.34;5056610;28;20039;-77
2022/09/09 07:26:03;;;;;;;0.20;0.20;;;;;;;19.85;62.89;100643.69;5049105;28;20029;-76
2022/09/09 07:28:30;;;;;;;0.10;0.10;;;;;;;19.91;62.84;100643.28;5054358;28;20035;-76
2022/09/09 07:30:59;;;;;;;0.20;0.20;;;;;;;20.02;62.29;100643.47;5049202;28;20029;-77
2022/09/09 07:33:26;;;;;;;0.20;0.20;;;;;;;20.03;62.03;100637.16;5045514;28;20025;-76
2022/09/09 07:35:53;;;;;;;0.60;0.60;;;;;;;20.08;62.00;100633.34;5040110;28;20033;-76
2022/09/09 07:38:21;;;;;;;0.30;0.30;;;;;;;20.12;61.62;100641.09;5040817;28;20029;-77
2022/09/09 07:40:47;;;;;;;0.52;0.52;;;;;;;20.20;61.28;100638.78;5042690;28;20058;-76
2022/09/09 07:43:13;;;;;;;0.00;0.00;;;;;;;20.22;61.12;100641.38;5039923;28;20033;-76
2022/09/09 07:45:41;;;;;;;0.10;0.10;;;;;;;20.24;61.06;100635.88;5036594;28;20037;-77
2022/09/09 07:48:08;;;;;;;0.10;0.10;;;;;;;20.32;60.83;100645.19;5038428;28;20030;-77
2022/09/09 07:50:34;;;;;;;0.20;0.20;;;;;;;20.35;60.77;100645.00;5038996;28;20027;-77
2022/09/09 07:53:02;;;;;;;0.30;0.22;;;;;;;20.36;60.76;100633.28;5042997;28;20466;-77
2022/09/09 07:55:31;;;;;;;0.10;0.10;;;;;;;20.43;60.25;100632.88;5039988;28;20037;-77
2022/09/09 07:57:58;;;;;;;0.10;0.10;;;;;;;20.34;60.02;100640.56;5046529;28;20372;-77
2022/09/09 08:00:24;;;;;;;0.13;0.13;;;;;;;20.42;60.25;100647.31;5044541;28;20486;-76
2022/09/09 08:02:50;;;;;;;0.10;0.10;;;;;;;20.39;60.68;100642.09;5044597;28;20411;-78
2022/09/09 08:05:18;;;;;;;0.10;0.10;;;;;;;20.40;60.01;100633.94;5043888;28;20048;-77
2022/09/09 08:07:44;;;;;;;0.93;0.60;;;;;;;20.33;60.25;100638.00;5041616;28;20021;-76
2022/09/09 08:10:10;;;;;;;0.00;0.00;;;;;;;20.39;60.57;100647.47;5043405;28;20040;-77
2022/09/09 08:12:36;;;;;;;0.28;0.28;;;;;;;20.28;60.37;100646.34;5039151;28;20039;-77
2022/09/09 08:15:02;;;;;;;0.10;0.10;;;;;;;20.18;59.87;100642.53;5037282;28;20018;-77
2022/09/09 08:17:28;;;;;;;0.10;0.10;;;;;;;20.24;60.23;100644.84;5039565;28;20033;-77
2022/09/09 08:19:54;;;;;;;0.20;0.20;;;;;;;20.18;60.33;100637.16;5039748;28;20049;-78
2022/09/09 08:22:21;;;;;;;0.17;0.17;;;;;;;20.19;60.31;100641.56;5041575;28;20042;-77
2022/09/09 08:24:47;;;;;;;0.10;0.10;;;;;;;20.25;60.55;100651.94;5039591;28;20026;-77
2022/09/09 08:27:13;;;;;;;0.95;0.95;;;;;;;20.22;60.56;100641.38;5039541;28;20021;-77
2022/09/09 08:29:40;;;;;;;2.92;1.35;;;;;;;20.20;60.26;100648.69;5048743;28;20117;-77
2022/09/09 08:32:06;;;;;;;0.20;0.20;;;;;;;20.28;60.46;100646.34;5039157;28;20041;-77
2022/09/09 08:34:32;;;;;;;0.10;0.10;;;;;;;20.34;60.29;100645.97;5040804;28;20029;-75
2022/09/09 08:36:58;;;;;;;0.17;0.17;;;;;;;20.39;59.92;100650.16;5034974;28;20027;-77
2022/09/09 08:39:24;;;;;;;0.10;0.10;;;;;;;20.45;59.85;100641.69;5037871;28;20434;-76
2022/09/09 08:55:59;;;;;;;0.10;0.10;;;;;;;20.45;59.69;100652.47;5086077;27;20118;-75
2022/09/09 08:58:29;;;;;;;0.55;0.55;;;;;;;20.44;59.82;100650.75;5051483;28;20040;-76
2022/09/09 09:01:16;;;;;;;0.10;0.10;;;;;;;20.53;59.65;100650.16;5051278;28;20029;-75
2022/09/09 09:03:59;;;;;;;0.10;0.10;;;;;;;20.52;59.40;100652.00;5054805;28;20387;-76
2022/09/09 09:11:50;;;;;;;0.13;0.13;;;;;;;20.39;60.95;100658.25;5063725;27;1877739;-75
2022/09/09 09:17:03;;;;;;;0.10;0.10;;;;;;;20.29;61.41;100663.38;5060454;27;20176;-76
2022/09/09 09:19:32;;;;;;;0.10;0.10;;;;;;;20.19;61.51;100665.78;5020611;28;20033;-75
2022/09/09 09:22:23;;;;;;;0.10;0.10;;;;;;;20.18;61.96;100664.06;5024165;28;20044;-75
2022/09/09 09:25:18;;;;;;;0.10;0.10;;;;;;;20.23;61.75;100664.63;5020976;28;20488;-74
2022/09/09 09:27:52;;;;;;;1.15;1.15;;;;;;;20.26;61.58;100669.81;5018749;28;20529;-74
2022/09/09 09:30:21;;;;;;;0.10;0.10;;;;;;;20.15;62.07;100661.53;5021812;28;20025;-75
2022/09/09 09:32:58;;;;;;;0.00;0.00;;;;;;;20.27;61.93;100663.44;5023382;28;20507;-75
2022/09/09 09:35:24;;;;;;;0.13;0.13;;;;;;;20.26;61.95;100661.75;5024124;28;20109;-75
2022/09/09 09:37:50;;;;;;;0.20;0.20;;;;;;;20.26;61.74;100660.88;5024781;28;20037;-74
2022/09/09 09:40:19;;;;;;;20.38;1.30;;;;;;;20.29;62.16;100664.22;5021260;28;20772;-75
2022/09/09 09:45:41;;;;;;;0.93;0.70;;;;;;;20.22;62.69;100660.19;5064458;28;20408;-77
2022/09/09 09:48:12;;;;;;;0.10;0.10;;;;;;;20.18;62.88;100654.13;5051476;28;20033;-77
2022/09/09 09:50:50;;;;;;;0.10;0.10;;;;;;;20.15;63.26;100653.47;5048135;28;20029;-76
2022/09/09 09:53:26;;;;;;;1.98;1.48;;;;;;;20.20;63.46;100651.38;5051417;28;20032;-79
2022/09/09 09:55:58;;;;;;;0.10;0.10;;;;;;;20.29;63.77;100652.63;5056471;28;20035;-77
2022/09/09 09:58:28;;;;;;;0.10;0.10;;;;;;;20.32;63.80;100647.88;5046680;28;20037;-76
2022/09/09 10:00:55;;;;;;;0.40;0.40;;;;;;;20.48;64.00;100644.22;5047874;28;20507;-77
2022/09/09 10:03:29;;;;;;;0.10;0.10;;;;;;;20.82;63.96;100647.41;5050324;28;20383;-77
2022/09/09 10:05:56;;;;;;;0.10;0.10;;;;;;;21.09;64.61;100639.31;5050519;28;20037;-76
2022/09/09 10:08:25;;;;;;;0.10;0.10;;;;;;;21.47;63.34;100645.72;5058211;28;20080;-77
2022/09/09 10:13:54;;;;;;;0.10;0.10;;;;;;;21.92;59.88;100640.81;5078158;27;20353;-76
2022/09/09 10:16:37;;;;;;;0.10;0.10;;;;;;;22.01;59.42;100644.69;5071053;28;20410;-77
2022/09/09 10:19:11;;;;;;;0.10;0.10;;;;;;;22.01;59.00;100639.31;5075191;28;20025;-76
2022/09/09 10:21:53;;;;;;;0.15;0.15;;;;;;;22.03;59.35;100641.88;5079648;28;20351;-76
2022/09/09 10:30:19;;;;;;;0.10;0.10;;;;;;;21.85;58.29;100644.91;5089437;27;20385;-76
2022/09/09 10:35:33;;;;;;;0.10;0.10;;;;;;;21.87;58.78;100644.81;5068165;28;20390;-76
2022/09/09 10:38:17;;;;;;;3.60;0.93;;;;;;;21.93;57.92;100647.06;5051956;28;20039;-76
2022/09/09 10:43:51;;;;;;;0.20;0.20;;;;;;;21.94;58.12;100644.28;5071527;27;20164;-76
2022/09/09 10:49:31;;;;;;;0.10;0.10;;;;;;;22.09;57.21;100647.72;5048937;28;20901;-76
2022/09/09 10:52:19;;;;;;;2.20;1.30;;;;;;;22.00;57.72;100645.66;5028233;28;20026;-76
2022/09/09 10:55:13;;;;;;;0.10;0.10;;;;;;;21.94;57.59;100649.69;5032781;28;20060;-77
2022/09/09 10:57:47;;;;;;;0.30;0.30;;;;;;;21.87;58.22;100640.28;5028416;28;20364;-76
2022/09/09 11:03:01;;;;;;;0.10;0.10;;;;;;;21.85;57.75;100639.53;5057189;28;20412;-76
2022/09/09 11:08:12;;;;;;;0.10;0.10;;;;;;;21.66;58.17;100650.75;5069371;28;20138;-76
2022/09/09 11:10:48;;;;;;;0.10;0.10;;;;;;;21.60;58.54;100643.94;5066730;28;20032;-75
2022/09/09 11:16:25;;;;;;;0.40;0.40;;;;;;;21.70;59.87;100654.09;5083223;27;20409;-74
2022/09/09 11:19:02;;;;;;;0.17;0.17;;;;;;;21.96;59.07;100644.16;5085253;28;20435;-75
2022/09/09 11:21:34;;;;;;;0.10;0.10;;;;;;;22.10;58.53;100643.19;5083630;28;20501;-75
2022/09/09 11:24:08;;;;;;;0.10;0.10;;;;;;;22.20;57.96;100638.84;5083633;28;20024;-75
2022/09/09 11:26:45;;;;;;;0.10;0.10;;;;;;;22.33;57.88;100637.94;5079431;28;20141;-75
2022/09/09 11:29:52;;;;;;;0.20;0.20;;;;;;;22.46;57.14;100645.06;5082261;28;20093;-76
2022/09/09 11:38:25;;;;;;;0.10;0.10;;;;;;;22.71;56.14;100648.66;5055479;28;20408;-75
2022/09/09 11:41:02;;;;;;;0.10;0.10;;;;;;;22.59;55.54;100642.34;5041264;28;20068;-75
2022/09/09 11:43:38;;;;;;;0.10;0.10;;;;;;;22.59;56.10;100647.72;5054280;28;20025;-75
2022/09/09 11:46:05;;;;;;;0.10;0.10;;;;;;;22.60;56.30;100646.75;5048470;28;20048;-76
2022/09/09 11:48:35;;;;;;;0.32;0.32;;;;;;;22.75;56.08;100638.47;5046899;28;20029;-79
2022/09/09 11:54:01;;;;;;;0.10;0.10;;;;;;;22.75;54.80;100644.75;5048616;27;20418;-78
2022/09/09 12:02:15;;;;;;;0.10;0.10;;;;;;;22.64;56.27;100638.41;5099970;27;20420;-77
2022/09/09 12:04:48;;;;;;;0.10;0.10;;;;;;;22.46;56.34;100644.22;5086211;28;20032;-77
2022/09/09 12:07:38;;;;;;;0.10;0.10;;;;;;;22.48;57.04;100642.28;5081138;28;20039;-76
2022/09/09 12:13:24;;;;;;;0.20;0.20;;;;;;;22.49;58.14;100630.47;5068330;28;20394;-77
2022/09/09 12:18:39;;;;;;;0.10;0.10;;;;;;;22.21;57.02;100634.31;5131269;27;20335;-76
2022/09/09 12:23:52;;;;;;;0.10;0.10;;;;;;;22.41;58.02;100636.44;5049820;28;21743;-77
2022/09/09 12:32:03;;;;;;;0.08;0.08;;;;;;;22.29;58.06;100627.38;5026874;28;20425;-74
2022/09/09 12:42:33;;;;;;;0.08;0.08;;;;;;;21.61;61.29;100628.66;5064176;28;21856;-77
2022/09/09 12:45:02;;;;;;;0.98;0.90;;;;;;;21.49;61.64;100630.31;5058388;28;20047;-77
2022/09/09 12:50:22;;;;;;;0.40;0.40;;;;;;;21.37;62.91;100641.94;5098092;27;1174833;-77
2022/09/09 12:52:50;;;;;;;0.10;0.10;;;;;;;21.33;62.97;100644.00;5114891;28;20044;-75
2022/09/09 12:55:21;;;;;;;0.20;0.20;;;;;;;21.25;62.49;100641.81;5108359;28;20027;-76
2022/09/09 12:57:50;;;;;;;0.10;0.10;;;;;;;21.29;62.37;100645.19;5109720;27;20032;-76
2022/09/09 13:00:20;;;;;;;0.10;0.10;;;;;;;21.36;62.85;100649.19;5108845;27;20027;-75
2022/09/09 13:02:51;;;;;;;0.20;0.20;;;;;;;21.34;61.97;100651.97;5107476;28;20114;-73
2022/09/09 13:05:35;;;;;;;0.10;0.10;;;;;;;21.38;62.57;100651.75;5118551;28;20396;-75
2022/09/09 13:08:04;;;;;;;0.10;0.10;;;;;;;21.25;62.64;100652.59;5112419;27;20549;-75
2022/09/09 13:10:35;;;;;;;0.10;0.10;;;;;;;21.22;62.57;100650.13;5112372;28;20027;-75
2022/09/09 13:13:02;;;;;;;0.10;0.10;;;;;;;21.22;62.46;100642.06;5109997;28;20489;-77
2022/09/09 13:15:29;;;;;;;0.10;0.10;;;;;;;21.20;62.54;100641.28;5111733;27;20115;-76
2022/09/09 13:18:00;;;;;;;0.13;0.13;;;;;;;21.21;63.12;100637.63;5113688;28;20063;-77
2022/09/09 13:20:27;;;;;;;0.10;0.10;;;;;;;21.22;62.81;100636.66;5109842;27;20115;-77
2022/09/09 13:22:55;;;;;;;0.10;0.10;;;;;;;21.16;62.72;100637.94;5112236;28;20118;-76
2022/09/09 13:25:27;;;;;;;0.32;0.32;;;;;;;21.17;62.67;100657.63;5111706;28;20024;-76
2022/09/09 13:27:59;;;;;;;0.73;0.63;;;;;;;21.09;62.99;100651.94;5107897;27;20020;-77
2022/09/09 13:30:33;;;;;;;0.10;0.10;;;;;;;21.01;63.61;100650.59;5108483;28;20062;-76
2022/09/09 13:33:06;;;;;;;0.10;0.10;;;;;;;20.91;64.14;100657.59;5110322;28;20027;-76
2022/09/09 13:35:33;;;;;;;0.10;0.10;;;;;;;20.73;64.21;100670.41;5113908;28;20066;-75
2022/09/09 13:38:07;;;;;;;0.10;0.10;;;;;;;20.66;65.08;100669.94;5106211;27;20069;-76
2022/09/09 13:40:34;;;;;;;0.10;0.10;;;;;;;20.66;64.71;100659.16;5118169;28;20031;-76
2022/09/09 13:43:02;;;;;;;0.20;0.20;;;;;;;20.69;64.96;100667.03;5110208;28;20032;-76
2022/09/09 13:45:28;;;;;;;0.20;0.20;;;;;;;20.67;65.78;100668.97;5115708;28;20114;-76
2022/09/09 13:47:55;;;;;;;0.10;0.10;;;;;;;20.81;66.11;100649.25;5111248;27;20036;-76
2022/09/09 13:52:59;;;;;;;0.10;0.10;;;;;;;21.25;65.48;100660.69;5083642;27;20224;-75
2022/09/09 13:55:28;;;;;;;0.10;0.10;;;;;;;21.11;63.86;100667.00;5074518;28;20563;-75
2022/09/09 13:57:56;;;;;;;0.00;0.00;;;;;;;21.22;63.50;100668.13;5064576;28;20048;-74
2022/09/09 14:00:24;;;;;;;0.17;0.17;;;;;;;21.15;63.69;100667.69;5070677;28;20028;-76